createdAt,value
2023-04-07T00:00:18.212Z,18.88
2023-04-07T00:02:50.782Z,17.95
2023-04-07T00:05:25.923Z,19.67
2023-04-07T00:07:59.174Z,19.75
2023-04-07T00:10:31.102Z,19.60
2023-04-07T00:13:03.743Z,19.88
2023-04-07T00:15:35.517Z,20.00
2023-04-07T00:18:08.049Z,20.35
2023-04-07T00:20:42.803Z,19.70
2023-04-07T00:23:14.675Z,19.23
2023-04-07T00:25:48.423Z,18.48
2023-04-07T00:28:20.651Z,21.08
2023-04-07T00:30:52.418Z,19.30
2023-04-07T00:33:24.231Z,19.35
2023-04-07T00:35:58.020Z,19.63
2023-04-07T00:38:32.517Z,20.33
2023-04-07T00:41:04.584Z,19.95
2023-04-07T00:43:36.314Z,19.05
2023-04-07T00:46:08.123Z,19.63
2023-04-07T00:48:39.886Z,20.00
2023-04-07T00:51:12.311Z,19.42
2023-04-07T00:53:44.688Z,19.73
2023-04-07T00:56:16.557Z,19.15
2023-04-07T00:58:48.498Z,19.55
2023-04-07T01:01:33.275Z,20.27
2023-04-07T01:04:10.168Z,20.98
2023-04-07T01:06:48.451Z,20.20
2023-04-07T01:09:51.261Z,19.73
2023-04-07T01:13:01.537Z,19.52
2023-04-07T01:15:36.201Z,20.27
2023-04-07T01:18:16.356Z,19.70
2023-04-07T01:20:53.481Z,19.80
2023-04-07T01:23:39.730Z,19.67
2023-04-07T01:26:26.704Z,19.67
2023-04-07T01:29:24.781Z,19.73
2023-04-07T01:32:00.488Z,18.80
2023-04-07T01:34:33.008Z,19.13
2023-04-07T01:37:07.074Z,18.75
2023-04-07T01:39:41.018Z,19.90
2023-04-07T01:42:15.896Z,20.40
2023-04-07T01:47:31.299Z,19.42
2023-04-07T01:50:05.441Z,20.88
2023-04-07T01:52:41.385Z,19.57
2023-04-07T01:55:13.683Z,20.27
2023-04-07T01:57:54.947Z,20.73
2023-04-07T02:00:26.877Z,19.27
2023-04-07T02:03:11.883Z,20.58
2023-04-07T02:05:44.717Z,19.90
2023-04-07T02:08:19.647Z,21.08
2023-04-07T02:10:55.261Z,19.30
2023-04-07T02:13:30.116Z,20.55
2023-04-07T02:16:03.065Z,18.73
2023-04-07T02:18:35.603Z,22.90
2023-04-07T02:21:11.566Z,20.15
2023-04-07T02:23:43.270Z,20.50
2023-04-07T02:26:15.240Z,20.83
2023-04-07T02:28:47.022Z,21.13
2023-04-07T02:31:19.562Z,19.90
2023-04-07T02:33:58.312Z,21.08
2023-04-07T02:36:31.335Z,20.48
2023-04-07T02:39:06.691Z,19.90
2023-04-07T02:41:38.482Z,19.85
2023-04-07T02:44:10.337Z,19.50
2023-04-07T02:46:42.761Z,20.45
2023-04-07T02:49:14.542Z,20.30
2023-04-07T02:51:47.379Z,19.10
2023-04-07T02:54:22.177Z,19.52
2023-04-07T02:56:54.406Z,19.63
2023-04-07T02:59:26.368Z,20.05
2023-04-07T03:01:58.277Z,19.92
2023-04-07T03:04:30.618Z,18.80
2023-04-07T03:07:04.337Z,19.88
2023-04-07T03:09:37.601Z,18.70
2023-04-07T03:12:12.266Z,19.13
2023-04-07T03:14:44.040Z,19.05
2023-04-07T03:17:16.428Z,18.50
2023-04-07T03:19:49.423Z,19.55
2023-04-07T03:22:21.319Z,19.40
2023-04-07T03:24:56.553Z,18.15
2023-04-07T03:27:30.215Z,18.67
2023-04-07T03:30:07.342Z,19.00
2023-04-07T03:32:43.323Z,17.88
2023-04-07T03:35:15.845Z,17.45
2023-04-07T03:37:49.612Z,18.92
2023-04-07T03:40:23.263Z,17.73
2023-04-07T03:43:02.131Z,16.83
2023-04-07T03:45:34.856Z,19.77
2023-04-07T03:48:10.702Z,19.23
2023-04-07T03:50:47.400Z,18.02
2023-04-07T03:53:22.796Z,17.95
2023-04-07T03:55:56.520Z,18.80
2023-04-07T03:58:48.025Z,17.67
2023-04-07T04:01:36.841Z,18.40
2023-04-07T04:04:16.935Z,17.38
2023-04-07T04:06:50.536Z,18.50
2023-04-07T04:09:45.883Z,17.02
2023-04-07T04:12:17.852Z,17.35
2023-04-07T04:15:04.499Z,16.92
2023-04-07T04:17:37.026Z,18.40
2023-04-07T04:20:10.415Z,18.30
2023-04-07T04:22:51.555Z,16.83
2023-04-07T04:25:26.990Z,16.88
2023-04-07T04:28:01.520Z,17.88
2023-04-07T04:30:33.298Z,17.08
2023-04-07T04:33:08.966Z,17.40
2023-04-07T04:35:46.743Z,17.40
2023-04-07T04:38:24.301Z,17.25
2023-04-07T04:41:05.992Z,16.60
2023-04-07T04:43:45.240Z,17.23
2023-04-07T04:46:21.905Z,17.70
2023-04-07T04:48:55.215Z,17.40
2023-04-07T04:51:28.578Z,16.40
2023-04-07T04:54:06.952Z,17.30
2023-04-07T04:56:40.067Z,16.25
2023-04-07T04:59:11.811Z,15.75
2023-04-07T05:02:01.143Z,16.98
2023-04-07T05:04:33.191Z,16.67
2023-04-07T05:07:17.965Z,16.80
2023-04-07T05:12:23.711Z,17.27
2023-04-07T05:15:03.058Z,16.60
2023-04-07T05:17:34.973Z,16.75
2023-04-07T05:20:11.002Z,17.80
2023-04-07T05:22:46.192Z,17.00
2023-04-07T05:25:19.561Z,17.98
2023-04-07T05:27:54.612Z,16.90
2023-04-07T05:30:32.764Z,17.02
2023-04-07T05:33:05.706Z,16.58
2023-04-07T05:35:52.791Z,16.45
2023-04-07T05:38:30.630Z,16.48
2023-04-07T05:41:10.743Z,15.50
2023-04-07T05:43:44.812Z,15.35
2023-04-07T05:46:16.613Z,14.93
2023-04-07T05:49:18.866Z,16.17
2023-04-07T05:51:57.196Z,15.10
2023-04-07T05:54:36.398Z,15.10
2023-04-07T05:57:10.699Z,15.68
2023-04-07T05:59:47.438Z,16.30
2023-04-07T06:02:22.471Z,15.90
2023-04-07T06:04:55.398Z,16.52
2023-04-07T06:07:27.520Z,15.70
2023-04-07T06:09:59.185Z,15.27
2023-04-07T06:12:31.176Z,15.43
2023-04-07T06:15:02.969Z,16.85
2023-04-07T06:17:34.724Z,15.77
2023-04-07T06:20:07.369Z,15.65
2023-04-07T06:22:39.535Z,15.30
2023-04-07T06:25:12.639Z,15.38
2023-04-07T06:27:44.360Z,13.88
2023-04-07T06:30:16.220Z,14.98
2023-04-07T06:32:48.003Z,15.23
2023-04-07T06:35:20.074Z,14.30
2023-04-07T06:37:51.999Z,13.85
2023-04-07T06:40:23.762Z,14.70
2023-04-07T06:42:55.636Z,14.55
2023-04-07T06:45:33.524Z,14.15
2023-04-07T06:48:08.563Z,14.00
2023-04-07T06:50:40.412Z,13.57
2023-04-07T06:53:12.131Z,13.98
2023-04-07T06:55:43.860Z,13.20
2023-04-07T06:58:15.774Z,13.57
2023-04-07T07:00:47.548Z,14.05
2023-04-07T07:03:19.717Z,14.02
2023-04-07T07:05:52.808Z,14.15
2023-04-07T07:08:25.811Z,15.00
2023-04-07T07:10:58.638Z,15.07
2023-04-07T07:13:30.567Z,15.38
2023-04-07T07:16:02.336Z,14.70
2023-04-07T07:18:34.573Z,14.82
2023-04-07T07:21:06.299Z,15.48
2023-04-07T07:23:38.364Z,15.10
2023-04-07T07:26:10.876Z,14.55
2023-04-07T07:28:42.744Z,14.18
2023-04-07T07:31:15.719Z,13.60
2023-04-07T07:33:49.211Z,13.95
2023-04-07T07:36:21.116Z,13.43
2023-04-07T07:38:52.877Z,13.60
2023-04-07T07:41:24.674Z,13.90
2023-04-07T07:43:56.559Z,13.38
2023-04-07T07:46:28.456Z,13.48
2023-04-07T07:49:00.324Z,12.57
2023-04-07T07:51:32.466Z,14.48
2023-04-07T07:54:05.613Z,13.73
2023-04-07T07:56:37.345Z,13.05
2023-04-07T07:59:09.164Z,13.07
2023-04-07T08:01:41.041Z,13.85
2023-04-07T08:04:15.999Z,13.00
2023-04-07T08:06:55.022Z,13.57
2023-04-07T08:09:29.305Z,10.93
2023-04-07T08:12:02.440Z,11.02
2023-04-07T08:14:34.244Z,11.07
2023-04-07T08:17:05.986Z,12.82
2023-04-07T08:19:38.239Z,11.80
2023-04-07T08:22:12.760Z,8.93
2023-04-07T08:24:45.512Z,9.25
2023-04-07T08:27:18.675Z,8.98
2023-04-07T08:30:03.665Z,8.55
2023-04-07T08:35:11.857Z,8.95
2023-04-07T08:37:44.370Z,9.23
2023-04-07T08:40:16.870Z,8.68
2023-04-07T08:42:49.364Z,7.78
2023-04-07T08:45:22.285Z,8.45
2023-04-07T08:47:57.280Z,8.20
2023-04-07T08:50:29.294Z,8.13
2023-04-07T08:53:07.435Z,7.85
2023-04-07T08:55:39.642Z,7.68
2023-04-07T08:58:13.359Z,8.35
2023-04-07T09:00:46.812Z,8.50
2023-04-07T09:03:19.957Z,8.32
2023-04-07T09:05:52.372Z,8.35
2023-04-07T09:08:24.393Z,7.78
2023-04-07T09:10:59.546Z,7.70
2023-04-07T09:13:31.713Z,7.57
2023-04-07T09:16:06.740Z,8.00
2023-04-07T09:18:38.552Z,7.65
2023-04-07T09:21:14.511Z,7.25
2023-04-07T09:23:48.080Z,7.78
2023-04-07T09:26:28.436Z,7.85
2023-04-07T09:29:02.931Z,8.38
2023-04-07T09:31:55.428Z,8.70
2023-04-07T09:34:31.628Z,8.45
2023-04-07T09:37:06.172Z,7.38
2023-04-07T09:39:56.377Z,8.55
2023-04-07T09:42:32.376Z,8.25
2023-04-07T09:45:04.347Z,9.07
2023-04-07T09:47:36.146Z,8.40
2023-04-07T09:50:08.195Z,8.00
2023-04-07T09:52:51.824Z,7.93
2023-04-07T09:55:24.393Z,7.57
2023-04-07T09:57:56.462Z,8.18
2023-04-07T10:00:28.344Z,7.60
2023-04-07T10:03:00.893Z,7.80
2023-04-07T10:05:34.443Z,7.75
2023-04-07T10:08:06.866Z,7.97
2023-04-07T10:10:42.008Z,7.40
2023-04-07T10:13:14.112Z,6.53
2023-04-07T10:15:45.898Z,7.00
2023-04-07T10:18:20.443Z,7.75
2023-04-07T10:20:54.029Z,7.40
2023-04-07T10:23:34.621Z,7.50
2023-04-07T10:26:08.203Z,6.85
2023-04-07T10:28:43.631Z,7.28
2023-04-07T10:31:16.338Z,7.10
2023-04-07T10:33:52.865Z,7.28
2023-04-07T10:36:24.683Z,8.18
2023-04-07T10:39:23.390Z,7.60
2023-04-07T10:41:55.941Z,7.22
2023-04-07T10:44:43.026Z,6.72
2023-04-07T10:47:15.057Z,6.90
2023-04-07T10:50:11.992Z,7.05
2023-04-07T10:52:44.724Z,6.55
2023-04-07T10:55:30.160Z,5.55
2023-04-07T10:58:21.080Z,6.38
2023-04-07T11:01:04.878Z,5.40
2023-04-07T11:03:38.751Z,4.57
2023-04-07T11:06:12.406Z,5.47
2023-04-07T11:08:49.480Z,5.38
2023-04-07T11:11:39.581Z,6.05
2023-04-07T11:14:11.668Z,6.05
2023-04-07T11:16:45.145Z,5.18
2023-04-07T11:19:16.804Z,5.45
2023-04-07T11:21:48.729Z,5.60
2023-04-07T11:24:39.289Z,5.70
2023-04-07T11:27:15.011Z,5.72
2023-04-07T11:29:46.729Z,5.40
2023-04-07T11:32:26.409Z,5.63
2023-04-07T11:34:58.361Z,5.80
2023-04-07T11:37:30.097Z,5.88
2023-04-07T11:40:02.075Z,5.65
2023-04-07T11:42:42.121Z,5.82
2023-04-07T11:45:19.444Z,6.18
2023-04-07T11:47:51.232Z,5.95
2023-04-07T11:50:40.074Z,6.35
2023-04-07T11:53:13.815Z,6.38
2023-04-07T11:55:45.589Z,6.40
2023-04-07T11:58:17.607Z,6.63
2023-04-07T12:00:59.418Z,7.18
2023-04-07T12:03:32.289Z,6.50
2023-04-07T12:06:05.198Z,7.25
2023-04-07T12:08:43.745Z,7.57
2023-04-07T12:11:15.519Z,6.72
2023-04-07T12:13:47.431Z,7.43
2023-04-07T12:16:20.394Z,7.45
2023-04-07T12:18:52.700Z,7.45
2023-04-07T12:21:27.657Z,7.93
2023-04-07T12:24:00.587Z,8.15
2023-04-07T12:26:32.329Z,7.82
2023-04-07T12:29:05.625Z,7.20
2023-04-07T12:31:37.429Z,7.85
2023-04-07T12:34:10.304Z,8.13
2023-04-07T12:36:42.017Z,7.57
2023-04-07T12:39:14.201Z,8.15
2023-04-07T12:41:47.589Z,7.65
2023-04-07T12:44:19.516Z,7.95
2023-04-07T12:46:51.358Z,7.97
2023-04-07T12:49:23.085Z,7.65
2023-04-07T12:51:55.820Z,8.40
2023-04-07T12:54:28.721Z,8.82
2023-04-07T12:57:00.411Z,8.20
2023-04-07T12:59:32.211Z,8.13
2023-04-07T13:02:04.164Z,8.18
2023-04-07T13:04:37.040Z,8.07
2023-04-07T13:07:09.895Z,8.30
2023-04-07T13:09:45.253Z,8.38
2023-04-07T13:12:16.953Z,8.23
2023-04-07T13:14:59.071Z,8.18
2023-04-07T13:17:31.604Z,7.88
2023-04-07T13:20:04.873Z,8.55
2023-04-07T13:22:46.095Z,8.35
2023-04-07T13:25:22.510Z,7.90
2023-04-07T13:27:54.276Z,8.30
2023-04-07T13:30:26.422Z,7.40
2023-04-07T13:32:58.326Z,8.48
2023-04-07T13:38:08.633Z,8.60
2023-04-07T13:40:41.408Z,8.00
2023-04-07T13:43:13.569Z,8.18
2023-04-07T13:45:45.624Z,7.45
2023-04-07T13:48:17.427Z,8.80
2023-04-07T13:50:49.583Z,8.13
2023-04-07T13:53:21.820Z,9.60
2023-04-07T13:55:53.539Z,8.52
2023-04-07T13:58:25.407Z,9.45
2023-04-07T14:00:57.338Z,9.15
2023-04-07T14:03:29.314Z,8.05
2023-04-07T14:06:02.269Z,8.45
2023-04-07T14:08:34.111Z,8.32
2023-04-07T14:11:05.885Z,8.32
2023-04-07T14:13:38.281Z,8.27
2023-04-07T14:16:10.041Z,8.32
2023-04-07T14:18:41.899Z,7.90
2023-04-07T14:21:15.797Z,7.63
2023-04-07T14:23:47.476Z,7.68
2023-04-07T14:26:19.391Z,7.90
2023-04-07T14:28:52.137Z,7.93
2023-04-07T14:31:23.894Z,7.97
2023-04-07T14:33:55.862Z,8.18
2023-04-07T14:36:27.988Z,7.40
2023-04-07T14:38:59.878Z,7.40
2023-04-07T14:41:31.720Z,7.75
2023-04-07T14:44:03.459Z,7.55
2023-04-07T14:46:35.179Z,7.70
2023-04-07T14:49:07.591Z,8.43
2023-04-07T14:51:39.569Z,7.70
2023-04-07T14:54:11.305Z,7.40
2023-04-07T14:56:43.215Z,7.53
2023-04-07T14:59:14.913Z,6.43
2023-04-07T15:01:46.918Z,7.40
2023-04-07T15:04:24.521Z,7.00
2023-04-07T15:06:56.413Z,6.25
2023-04-07T15:09:28.111Z,6.18
2023-04-07T15:12:00.851Z,6.63
2023-04-07T15:14:32.748Z,6.57
2023-04-07T15:17:04.504Z,6.35
2023-04-07T15:19:36.265Z,6.85
2023-04-07T15:22:08.019Z,6.20
2023-04-07T15:24:39.872Z,6.22
2023-04-07T15:27:11.581Z,7.25
2023-04-07T15:29:43.334Z,7.43
2023-04-07T15:32:15.115Z,7.60
2023-04-07T15:34:47.441Z,6.97
2023-04-07T15:37:19.407Z,6.90
2023-04-07T15:39:51.343Z,6.38
2023-04-07T15:42:23.078Z,7.78
2023-04-07T15:44:54.768Z,6.97
2023-04-07T15:47:26.626Z,6.93
2023-04-07T15:49:58.332Z,7.13
2023-04-07T15:52:30.862Z,8.55
2023-04-07T15:55:02.588Z,7.88
2023-04-07T15:57:34.510Z,8.55
2023-04-07T16:00:07.082Z,8.65
2023-04-07T16:02:40.382Z,7.85
2023-04-07T16:05:12.629Z,7.57
2023-04-07T16:07:44.376Z,8.02
2023-04-07T16:10:21.974Z,8.35
2023-04-07T16:12:53.774Z,7.63
2023-04-07T16:18:08.551Z,8.23
2023-04-07T16:20:40.610Z,8.15
2023-04-07T16:23:12.656Z,7.90
2023-04-07T16:25:46.060Z,8.10
2023-04-07T16:28:17.774Z,7.43
2023-04-07T16:30:49.453Z,8.38
2023-04-07T16:33:21.377Z,8.18
2023-04-07T16:35:53.118Z,7.65
2023-04-07T16:38:25.092Z,7.18
2023-04-07T16:41:04.562Z,8.68
2023-04-07T16:43:36.848Z,8.25
2023-04-07T16:46:08.601Z,8.90
2023-04-07T16:48:41.394Z,8.25
2023-04-07T16:51:20.439Z,8.63
2023-04-07T16:53:52.150Z,8.70
2023-04-07T16:56:25.351Z,8.38
2023-04-07T16:58:57.118Z,7.53
2023-04-07T17:01:30.137Z,8.73
2023-04-07T17:04:02.200Z,9.13
2023-04-07T17:06:34.063Z,8.45
2023-04-07T17:09:05.839Z,8.23
2023-04-07T17:11:37.744Z,8.55
2023-04-07T17:14:09.466Z,8.10
2023-04-07T17:16:41.238Z,7.97
2023-04-07T17:19:12.993Z,8.30
2023-04-07T17:21:45.053Z,8.38
2023-04-07T17:24:16.894Z,9.43
2023-04-07T17:26:48.686Z,8.85
2023-04-07T17:29:21.491Z,8.80
2023-04-07T17:31:54.677Z,8.93
2023-04-07T17:34:26.653Z,9.48
2023-04-07T17:36:58.384Z,9.07
2023-04-07T17:39:30.318Z,9.10
2023-04-07T17:42:02.030Z,9.50
2023-04-07T17:44:34.239Z,8.40
2023-04-07T17:47:06.071Z,8.95
2023-04-07T17:49:37.788Z,9.27
2023-04-07T17:52:09.562Z,9.73
2023-04-07T17:54:44.274Z,9.50
2023-04-07T17:59:51.032Z,9.80
2023-04-07T18:02:23.006Z,9.68
2023-04-07T18:04:56.293Z,8.82
2023-04-07T18:07:29.343Z,9.38
2023-04-07T18:10:01.498Z,9.48
2023-04-07T18:12:33.812Z,9.27
2023-04-07T18:15:05.968Z,9.13
2023-04-07T18:17:37.992Z,8.38
2023-04-07T18:20:10.281Z,9.27
2023-04-07T18:22:42.422Z,8.18
2023-04-07T18:25:14.392Z,8.45
2023-04-07T18:27:46.283Z,9.10
2023-04-07T18:30:18.110Z,9.40
2023-04-07T18:32:49.987Z,9.75
2023-04-07T18:35:22.165Z,9.70
2023-04-07T18:37:53.982Z,9.50
2023-04-07T18:40:25.869Z,9.95
2023-04-07T18:42:57.614Z,9.68
2023-04-07T18:45:29.415Z,9.63
2023-04-07T18:48:01.537Z,8.48
2023-04-07T18:50:33.620Z,8.55
2023-04-07T18:53:07.247Z,9.60
2023-04-07T18:55:39.028Z,8.90
2023-04-07T18:58:11.202Z,9.93
2023-04-07T19:00:44.083Z,7.85
2023-04-07T19:03:16.581Z,8.45
2023-04-07T19:05:48.618Z,10.18
2023-04-07T19:08:20.442Z,8.23
2023-04-07T19:10:52.287Z,8.30
2023-04-07T19:13:23.997Z,8.38
2023-04-07T19:15:55.791Z,8.60
2023-04-07T19:18:29.204Z,8.55
2023-04-07T19:21:01.571Z,8.02
2023-04-07T19:23:33.471Z,8.63
2023-04-07T19:26:05.548Z,8.63
2023-04-07T19:28:37.399Z,8.63
2023-04-07T19:31:09.421Z,9.10
2023-04-07T19:33:41.497Z,9.27
2023-04-07T19:36:13.217Z,9.93
2023-04-07T19:38:44.973Z,9.27
2023-04-07T19:41:19.520Z,9.50
2023-04-07T19:43:51.626Z,9.77
2023-04-07T19:46:23.440Z,10.05
2023-04-07T19:48:55.333Z,9.60
2023-04-07T19:51:27.637Z,10.23
2023-04-07T19:53:59.355Z,10.32
2023-04-07T19:56:31.321Z,9.63
2023-04-07T19:59:03.135Z,9.82
2023-04-07T20:01:37.922Z,9.90
2023-04-07T20:04:09.734Z,10.73
2023-04-07T20:06:41.521Z,10.43
2023-04-07T20:09:13.260Z,10.27
2023-04-07T20:11:45.340Z,10.88
2023-04-07T20:14:17.070Z,10.52
2023-04-07T20:16:48.902Z,10.35
2023-04-07T20:19:21.065Z,11.15
2023-04-07T20:21:52.905Z,9.98
2023-04-07T20:24:24.624Z,11.02
2023-04-07T20:26:56.436Z,10.45
2023-04-07T20:29:28.176Z,10.82
2023-04-07T20:31:59.866Z,10.98
2023-04-07T20:34:31.625Z,10.10
2023-04-07T20:37:03.428Z,10.82
2023-04-07T20:39:35.104Z,10.80
2023-04-07T20:42:06.777Z,10.20
2023-04-07T20:44:38.670Z,10.68
2023-04-07T20:47:11.537Z,10.75
2023-04-07T20:49:43.837Z,9.50
2023-04-07T20:52:15.582Z,10.77
2023-04-07T20:54:48.329Z,10.00
2023-04-07T20:57:20.075Z,9.70
2023-04-07T20:59:51.794Z,10.35
2023-04-07T21:02:23.588Z,10.50
2023-04-07T21:04:56.391Z,10.43
2023-04-07T21:07:28.088Z,10.18
2023-04-07T21:09:59.905Z,10.00
2023-04-07T21:12:31.752Z,9.48
2023-04-07T21:15:03.583Z,9.68
2023-04-07T21:17:35.470Z,9.65
2023-04-07T21:20:09.265Z,9.52
2023-04-07T21:22:40.968Z,9.05
2023-04-07T21:25:12.840Z,9.18
2023-04-07T21:27:44.547Z,9.07
2023-04-07T21:30:16.707Z,9.38
2023-04-07T21:32:49.352Z,9.70
2023-04-07T21:35:21.313Z,9.18
2023-04-07T21:37:53.048Z,9.32
2023-04-07T21:40:24.744Z,9.00
2023-04-07T21:42:56.759Z,8.90
2023-04-07T21:45:29.663Z,9.43
2023-04-07T21:48:01.755Z,10.15
2023-04-07T21:50:34.015Z,10.13
2023-04-07T21:53:05.809Z,9.63
2023-04-07T21:55:37.510Z,9.50
2023-04-07T21:58:09.842Z,10.52
2023-04-07T22:00:41.826Z,10.48
2023-04-07T22:03:13.905Z,9.82
2023-04-07T22:05:46.504Z,10.35
2023-04-07T22:08:18.226Z,11.07
2023-04-07T22:10:49.903Z,13.55
2023-04-07T22:13:23.099Z,12.95
2023-04-07T22:15:55.731Z,12.38
2023-04-07T22:18:27.857Z,11.65
2023-04-07T22:21:02.782Z,11.93
2023-04-07T22:23:34.477Z,14.07
2023-04-07T22:26:06.177Z,12.88
2023-04-07T22:28:37.877Z,11.93
2023-04-07T22:31:09.604Z,12.27
2023-04-07T22:33:44.074Z,13.00
2023-04-07T22:36:15.835Z,13.80
2023-04-07T22:38:47.849Z,14.50
2023-04-07T22:41:19.628Z,13.27
2023-04-07T22:43:51.358Z,14.52
2023-04-07T22:46:23.130Z,14.43
2023-04-07T22:48:57.531Z,14.70
2023-04-07T22:51:29.422Z,14.95
2023-04-07T22:54:01.153Z,15.13
2023-04-07T22:56:38.638Z,15.07
2023-04-07T22:59:10.851Z,15.38
2023-04-07T23:01:44.672Z,15.95
2023-04-07T23:04:16.989Z,15.43
2023-04-07T23:06:48.737Z,17.38
2023-04-07T23:09:20.736Z,14.73
2023-04-07T23:11:52.525Z,16.48
2023-04-07T23:14:24.306Z,16.08
2023-04-07T23:16:56.318Z,17.73
2023-04-07T23:19:29.384Z,17.08
2023-04-07T23:22:01.175Z,18.23
2023-04-07T23:24:32.886Z,16.63
2023-04-07T23:27:04.626Z,17.50
2023-04-07T23:29:36.405Z,17.02
2023-04-07T23:32:08.194Z,17.77
2023-04-07T23:34:40.873Z,17.92
2023-04-07T23:37:12.540Z,18.33
2023-04-07T23:39:44.216Z,17.73
2023-04-07T23:42:17.029Z,18.35
2023-04-07T23:44:48.760Z,18.35
2023-04-07T23:47:21.452Z,18.35
2023-04-07T23:49:53.472Z,20.10
2023-04-07T23:52:25.795Z,18.73
2023-04-07T23:54:57.573Z,17.20
2023-04-07T23:57:29.713Z,18.13
